sensor_id;sensor_type;location;lat;lon;timestamp;P1;durP1;ratioP1;P2;durP2;ratioP2
75261;SDS011;63859;51.064;4.580;2023-04-15T00:00:02;8.03;;;4.20;;
75261;SDS011;63859;51.064;4.580;2023-04-15T00:02:28;11.23;;;4.33;;
75261;SDS011;63859;51.064;4.580;2023-04-15T00:04:55;10.23;;;3.70;;
75261;SDS011;63859;51.064;4.580;2023-04-15T00:07:20;8.87;;;4.90;;
75261;SDS011;63859;51.064;4.580;2023-04-15T00:09:46;8.33;;;4.13;;
75261;SDS011;63859;51.064;4.580;2023-04-15T00:12:12;8.30;;;4.00;;
75261;SDS011;63859;51.064;4.580;2023-04-15T00:14:37;6.27;;;3.83;;
75261;SDS011;63859;51.064;4.580;2023-04-15T00:17:03;10.90;;;4.00;;
75261;SDS011;63859;51.064;4.580;2023-04-15T00:19:29;8.23;;;3.70;;
75261;SDS011;63859;51.064;4.580;2023-04-15T00:21:55;10.53;;;3.93;;
75261;SDS011;63859;51.064;4.580;2023-04-15T00:24:21;8.77;;;3.77;;
75261;SDS011;63859;51.064;4.580;2023-04-15T00:26:47;6.87;;;3.50;;
75261;SDS011;63859;51.064;4.580;2023-04-15T00:29:13;6.97;;;3.73;;
75261;SDS011;63859;51.064;4.580;2023-04-15T00:31:39;9.50;;;4.13;;
75261;SDS011;63859;51.064;4.580;2023-04-15T00:34:05;6.27;;;4.20;;
75261;SDS011;63859;51.064;4.580;2023-04-15T00:36:31;9.67;;;4.20;;
75261;SDS011;63859;51.064;4.580;2023-04-15T00:38:58;11.57;;;4.23;;
75261;SDS011;63859;51.064;4.580;2023-04-15T00:41:23;7.30;;;4.40;;
75261;SDS011;63859;51.064;4.580;2023-04-15T00:43:49;7.80;;;4.30;;
75261;SDS011;63859;51.064;4.580;2023-04-15T00:46:15;7.57;;;4.17;;
75261;SDS011;63859;51.064;4.580;2023-04-15T00:48:43;9.60;;;4.40;;
75261;SDS011;63859;51.064;4.580;2023-04-15T00:51:09;10.00;;;4.67;;
75261;SDS011;63859;51.064;4.580;2023-04-15T00:53:35;10.43;;;5.13;;
75261;SDS011;63859;51.064;4.580;2023-04-15T00:56:00;8.23;;;4.50;;
75261;SDS011;63859;51.064;4.580;2023-04-15T00:58:26;11.33;;;5.37;;
75261;SDS011;63859;51.064;4.580;2023-04-15T01:00:52;8.13;;;4.50;;
75261;SDS011;63859;51.064;4.580;2023-04-15T01:03:19;13.77;;;5.00;;
75261;SDS011;63859;51.064;4.580;2023-04-15T01:05:45;8.97;;;4.73;;
75261;SDS011;63859;51.064;4.580;2023-04-15T01:08:11;11.10;;;4.73;;
75261;SDS011;63859;51.064;4.580;2023-04-15T01:10:37;9.00;;;5.00;;
75261;SDS011;63859;51.064;4.580;2023-04-15T01:13:03;8.27;;;4.70;;
75261;SDS011;63859;51.064;4.580;2023-04-15T01:15:29;9.30;;;4.90;;
75261;SDS011;63859;51.064;4.580;2023-04-15T01:17:56;7.97;;;4.60;;
75261;SDS011;63859;51.064;4.580;2023-04-15T01:20:26;7.70;;;4.90;;
75261;SDS011;63859;51.064;4.580;2023-04-15T01:22:53;11.90;;;5.00;;
75261;SDS011;63859;51.064;4.580;2023-04-15T01:25:27;10.30;;;5.10;;
75261;SDS011;63859;51.064;4.580;2023-04-15T01:27:56;10.83;;;5.47;;
75261;SDS011;63859;51.064;4.580;2023-04-15T01:30:23;6.63;;;5.13;;
75261;SDS011;63859;51.064;4.580;2023-04-15T01:32:49;10.57;;;5.27;;
75261;SDS011;63859;51.064;4.580;2023-04-15T01:35:15;11.20;;;4.97;;
75261;SDS011;63859;51.064;4.580;2023-04-15T01:37:41;9.23;;;4.40;;
75261;SDS011;63859;51.064;4.580;2023-04-15T01:40:07;11.00;;;5.63;;
75261;SDS011;63859;51.064;4.580;2023-04-15T01:42:34;10.70;;;5.27;;
75261;SDS011;63859;51.064;4.580;2023-04-15T01:45:00;9.57;;;4.80;;
75261;SDS011;63859;51.064;4.580;2023-04-15T01:47:26;9.50;;;5.57;;
75261;SDS011;63859;51.064;4.580;2023-04-15T01:49:52;8.10;;;5.13;;
75261;SDS011;63859;51.064;4.580;2023-04-15T01:52:18;11.67;;;5.10;;
75261;SDS011;63859;51.064;4.580;2023-04-15T01:54:43;9.33;;;5.17;;
75261;SDS011;63859;51.064;4.580;2023-04-15T01:57:09;12.27;;;5.20;;
75261;SDS011;63859;51.064;4.580;2023-04-15T01:59:35;11.77;;;5.63;;
75261;SDS011;63859;51.064;4.580;2023-04-15T02:02:01;9.43;;;5.20;;
75261;SDS011;63859;51.064;4.580;2023-04-15T02:04:26;9.40;;;5.30;;
75261;SDS011;63859;51.064;4.580;2023-04-15T02:06:53;10.40;;;5.57;;
75261;SDS011;63859;51.064;4.580;2023-04-15T02:09:18;9.97;;;5.30;;
75261;SDS011;63859;51.064;4.580;2023-04-15T02:11:44;9.40;;;5.53;;
75261;SDS011;63859;51.064;4.580;2023-04-15T02:14:10;9.67;;;5.27;;
75261;SDS011;63859;51.064;4.580;2023-04-15T02:16:35;8.47;;;5.00;;
75261;SDS011;63859;51.064;4.580;2023-04-15T02:19:01;11.40;;;5.00;;
75261;SDS011;63859;51.064;4.580;2023-04-15T02:21:27;8.90;;;5.10;;
75261;SDS011;63859;51.064;4.580;2023-04-15T02:23:53;10.63;;;5.50;;
75261;SDS011;63859;51.064;4.580;2023-04-15T02:26:19;11.73;;;5.50;;
75261;SDS011;63859;51.064;4.580;2023-04-15T02:28:46;10.87;;;5.20;;
75261;SDS011;63859;51.064;4.580;2023-04-15T02:31:13;12.10;;;5.33;;
75261;SDS011;63859;51.064;4.580;2023-04-15T02:33:38;10.40;;;5.07;;
75261;SDS011;63859;51.064;4.580;2023-04-15T02:36:04;11.53;;;5.90;;
75261;SDS011;63859;51.064;4.580;2023-04-15T02:38:30;12.27;;;5.67;;
75261;SDS011;63859;51.064;4.580;2023-04-15T02:40:56;11.00;;;6.10;;
75261;SDS011;63859;51.064;4.580;2023-04-15T02:43:22;13.93;;;6.13;;
75261;SDS011;63859;51.064;4.580;2023-04-15T02:45:48;10.97;;;5.30;;
75261;SDS011;63859;51.064;4.580;2023-04-15T02:48:13;14.10;;;6.13;;
75261;SDS011;63859;51.064;4.580;2023-04-15T02:50:42;12.07;;;6.67;;
75261;SDS011;63859;51.064;4.580;2023-04-15T02:53:07;12.80;;;5.73;;
75261;SDS011;63859;51.064;4.580;2023-04-15T02:55:33;12.90;;;6.07;;
75261;SDS011;63859;51.064;4.580;2023-04-15T02:57:58;12.80;;;5.97;;
75261;SDS011;63859;51.064;4.580;2023-04-15T03:00:25;10.07;;;5.97;;
75261;SDS011;63859;51.064;4.580;2023-04-15T03:02:56;14.37;;;6.00;;
75261;SDS011;63859;51.064;4.580;2023-04-15T03:05:23;13.10;;;6.20;;
75261;SDS011;63859;51.064;4.580;2023-04-15T03:07:49;11.37;;;6.17;;
75261;SDS011;63859;51.064;4.580;2023-04-15T03:10:16;11.63;;;6.67;;
75261;SDS011;63859;51.064;4.580;2023-04-15T03:12:41;10.33;;;5.77;;
75261;SDS011;63859;51.064;4.580;2023-04-15T03:15:07;14.40;;;6.80;;
75261;SDS011;63859;51.064;4.580;2023-04-15T03:17:33;9.43;;;6.13;;
75261;SDS011;63859;51.064;4.580;2023-04-15T03:20:02;11.00;;;6.47;;
75261;SDS011;63859;51.064;4.580;2023-04-15T03:22:31;10.87;;;6.47;;
75261;SDS011;63859;51.064;4.580;2023-04-15T03:24:57;12.30;;;6.60;;
75261;SDS011;63859;51.064;4.580;2023-04-15T03:27:23;12.23;;;6.70;;
75261;SDS011;63859;51.064;4.580;2023-04-15T03:29:49;11.67;;;6.03;;
75261;SDS011;63859;51.064;4.580;2023-04-15T03:32:15;9.13;;;6.20;;
75261;SDS011;63859;51.064;4.580;2023-04-15T03:34:41;13.57;;;6.00;;
75261;SDS011;63859;51.064;4.580;2023-04-15T03:37:07;12.50;;;6.47;;
75261;SDS011;63859;51.064;4.580;2023-04-15T03:39:33;15.37;;;6.33;;
75261;SDS011;63859;51.064;4.580;2023-04-15T03:41:59;11.73;;;6.23;;
75261;SDS011;63859;51.064;4.580;2023-04-15T03:44:25;10.73;;;6.53;;
75261;SDS011;63859;51.064;4.580;2023-04-15T03:46:51;12.90;;;6.37;;
75261;SDS011;63859;51.064;4.580;2023-04-15T03:49:17;11.60;;;5.97;;
75261;SDS011;63859;51.064;4.580;2023-04-15T03:51:44;13.93;;;6.27;;
75261;SDS011;63859;51.064;4.580;2023-04-15T03:54:10;13.20;;;6.27;;
75261;SDS011;63859;51.064;4.580;2023-04-15T03:56:36;13.57;;;6.43;;
75261;SDS011;63859;51.064;4.580;2023-04-15T03:59:02;14.40;;;5.87;;
75261;SDS011;63859;51.064;4.580;2023-04-15T04:01:28;14.33;;;5.83;;
75261;SDS011;63859;51.064;4.580;2023-04-15T04:03:53;10.63;;;6.17;;
75261;SDS011;63859;51.064;4.580;2023-04-15T04:06:19;12.90;;;6.60;;
75261;SDS011;63859;51.064;4.580;2023-04-15T04:08:44;13.00;;;6.57;;
75261;SDS011;63859;51.064;4.580;2023-04-15T04:11:10;13.33;;;6.63;;
75261;SDS011;63859;51.064;4.580;2023-04-15T04:13:36;11.47;;;6.90;;
75261;SDS011;63859;51.064;4.580;2023-04-15T04:16:01;13.90;;;6.07;;
75261;SDS011;63859;51.064;4.580;2023-04-15T04:18:28;11.57;;;6.23;;
75261;SDS011;63859;51.064;4.580;2023-04-15T04:20:55;13.23;;;6.30;;
75261;SDS011;63859;51.064;4.580;2023-04-15T04:23:21;11.17;;;5.93;;
75261;SDS011;63859;51.064;4.580;2023-04-15T04:25:46;10.73;;;6.03;;
75261;SDS011;63859;51.064;4.580;2023-04-15T04:28:12;19.57;;;6.30;;
75261;SDS011;63859;51.064;4.580;2023-04-15T04:30:37;9.83;;;5.77;;
75261;SDS011;63859;51.064;4.580;2023-04-15T04:33:03;9.97;;;6.00;;
75261;SDS011;63859;51.064;4.580;2023-04-15T04:35:29;10.90;;;5.93;;
75261;SDS011;63859;51.064;4.580;2023-04-15T04:37:57;10.83;;;5.63;;
75261;SDS011;63859;51.064;4.580;2023-04-15T04:40:23;13.30;;;5.87;;
75261;SDS011;63859;51.064;4.580;2023-04-15T04:42:48;10.23;;;6.23;;
75261;SDS011;63859;51.064;4.580;2023-04-15T04:45:14;10.20;;;5.77;;
75261;SDS011;63859;51.064;4.580;2023-04-15T04:47:39;10.67;;;5.50;;
75261;SDS011;63859;51.064;4.580;2023-04-15T04:50:05;10.10;;;5.67;;
75261;SDS011;63859;51.064;4.580;2023-04-15T04:52:31;11.00;;;5.60;;
75261;SDS011;63859;51.064;4.580;2023-04-15T04:54:57;13.93;;;6.07;;
75261;SDS011;63859;51.064;4.580;2023-04-15T04:57:22;9.17;;;5.93;;
75261;SDS011;63859;51.064;4.580;2023-04-15T04:59:48;9.90;;;5.53;;
75261;SDS011;63859;51.064;4.580;2023-04-15T05:02:14;12.50;;;6.33;;
75261;SDS011;63859;51.064;4.580;2023-04-15T05:04:40;11.57;;;5.80;;
75261;SDS011;63859;51.064;4.580;2023-04-15T05:07:05;15.97;;;5.73;;
75261;SDS011;63859;51.064;4.580;2023-04-15T05:09:31;13.13;;;5.93;;
75261;SDS011;63859;51.064;4.580;2023-04-15T05:11:57;13.03;;;6.50;;
75261;SDS011;63859;51.064;4.580;2023-04-15T05:14:23;10.10;;;5.47;;
75261;SDS011;63859;51.064;4.580;2023-04-15T05:16:49;10.40;;;5.90;;
75261;SDS011;63859;51.064;4.580;2023-04-15T05:19:14;11.87;;;6.20;;
75261;SDS011;63859;51.064;4.580;2023-04-15T05:21:40;12.90;;;6.40;;
75261;SDS011;63859;51.064;4.580;2023-04-15T05:24:05;16.37;;;6.73;;
75261;SDS011;63859;51.064;4.580;2023-04-15T05:26:31;13.60;;;6.73;;
75261;SDS011;63859;51.064;4.580;2023-04-15T05:28:56;19.93;;;8.17;;
75261;SDS011;63859;51.064;4.580;2023-04-15T05:31:22;12.20;;;6.93;;
75261;SDS011;63859;51.064;4.580;2023-04-15T05:33:48;14.23;;;6.70;;
75261;SDS011;63859;51.064;4.580;2023-04-15T05:36:13;13.23;;;7.13;;
75261;SDS011;63859;51.064;4.580;2023-04-15T05:38:39;14.07;;;6.77;;
75261;SDS011;63859;51.064;4.580;2023-04-15T05:41:06;19.17;;;7.47;;
75261;SDS011;63859;51.064;4.580;2023-04-15T05:43:31;14.73;;;6.87;;
75261;SDS011;63859;51.064;4.580;2023-04-15T05:45:57;22.07;;;7.30;;
75261;SDS011;63859;51.064;4.580;2023-04-15T05:48:22;12.47;;;7.07;;
75261;SDS011;63859;51.064;4.580;2023-04-15T05:50:48;12.37;;;6.90;;
75261;SDS011;63859;51.064;4.580;2023-04-15T05:53:13;14.53;;;7.47;;
75261;SDS011;63859;51.064;4.580;2023-04-15T05:55:39;15.50;;;7.27;;
75261;SDS011;63859;51.064;4.580;2023-04-15T05:58:05;16.10;;;7.40;;
75261;SDS011;63859;51.064;4.580;2023-04-15T06:00:30;15.03;;;7.37;;
75261;SDS011;63859;51.064;4.580;2023-04-15T06:02:56;11.80;;;7.10;;
75261;SDS011;63859;51.064;4.580;2023-04-15T06:05:22;15.03;;;7.43;;
75261;SDS011;63859;51.064;4.580;2023-04-15T06:07:48;10.97;;;7.03;;
75261;SDS011;63859;51.064;4.580;2023-04-15T06:10:14;17.27;;;7.43;;
75261;SDS011;63859;51.064;4.580;2023-04-15T06:12:40;17.30;;;7.23;;
75261;SDS011;63859;51.064;4.580;2023-04-15T06:15:06;17.77;;;7.37;;
75261;SDS011;63859;51.064;4.580;2023-04-15T06:17:34;18.77;;;7.57;;
75261;SDS011;63859;51.064;4.580;2023-04-15T06:20:00;17.43;;;7.70;;
75261;SDS011;63859;51.064;4.580;2023-04-15T06:22:25;13.83;;;8.07;;
75261;SDS011;63859;51.064;4.580;2023-04-15T06:24:51;16.73;;;8.23;;
75261;SDS011;63859;51.064;4.580;2023-04-15T06:27:17;13.23;;;8.40;;
75261;SDS011;63859;51.064;4.580;2023-04-15T06:29:43;19.73;;;8.80;;
75261;SDS011;63859;51.064;4.580;2023-04-15T06:32:08;17.60;;;8.80;;
75261;SDS011;63859;51.064;4.580;2023-04-15T06:34:35;18.57;;;8.90;;
75261;SDS011;63859;51.064;4.580;2023-04-15T06:37:00;15.60;;;8.67;;
75261;SDS011;63859;51.064;4.580;2023-04-15T06:39:26;18.27;;;8.73;;
75261;SDS011;63859;51.064;4.580;2023-04-15T06:41:52;14.27;;;8.57;;
75261;SDS011;63859;51.064;4.580;2023-04-15T06:44:17;15.10;;;8.80;;
75261;SDS011;63859;51.064;4.580;2023-04-15T06:46:43;15.93;;;9.70;;
75261;SDS011;63859;51.064;4.580;2023-04-15T06:49:09;17.90;;;9.00;;
75261;SDS011;63859;51.064;4.580;2023-04-15T06:51:35;22.10;;;10.27;;
75261;SDS011;63859;51.064;4.580;2023-04-15T06:54:01;17.73;;;9.40;;
75261;SDS011;63859;51.064;4.580;2023-04-15T06:56:29;20.20;;;11.03;;
75261;SDS011;63859;51.064;4.580;2023-04-15T06:58:58;15.27;;;9.80;;
75261;SDS011;63859;51.064;4.580;2023-04-15T07:01:24;22.17;;;10.90;;
75261;SDS011;63859;51.064;4.580;2023-04-15T07:03:50;18.47;;;11.33;;
75261;SDS011;63859;51.064;4.580;2023-04-15T07:06:15;18.77;;;11.60;;
75261;SDS011;63859;51.064;4.580;2023-04-15T07:08:41;23.87;;;12.40;;
75261;SDS011;63859;51.064;4.580;2023-04-15T07:11:07;23.77;;;12.67;;
75261;SDS011;63859;51.064;4.580;2023-04-15T07:13:32;18.57;;;12.33;;
75261;SDS011;63859;51.064;4.580;2023-04-15T07:15:58;18.07;;;12.07;;
75261;SDS011;63859;51.064;4.580;2023-04-15T07:18:24;20.47;;;12.23;;
75261;SDS011;63859;51.064;4.580;2023-04-15T07:20:50;18.87;;;12.00;;
75261;SDS011;63859;51.064;4.580;2023-04-15T07:23:16;25.00;;;13.30;;
75261;SDS011;63859;51.064;4.580;2023-04-15T07:25:42;23.47;;;12.10;;
75261;SDS011;63859;51.064;4.580;2023-04-15T07:28:08;20.17;;;12.20;;
75261;SDS011;63859;51.064;4.580;2023-04-15T07:30:33;25.87;;;12.40;;
75261;SDS011;63859;51.064;4.580;2023-04-15T07:33:00;24.20;;;11.67;;
75261;SDS011;63859;51.064;4.580;2023-04-15T07:35:26;23.27;;;11.10;;
75261;SDS011;63859;51.064;4.580;2023-04-15T07:37:52;20.87;;;10.60;;
75261;SDS011;63859;51.064;4.580;2023-04-15T07:40:18;15.07;;;9.27;;
75261;SDS011;63859;51.064;4.580;2023-04-15T07:42:44;17.37;;;9.70;;
75261;SDS011;63859;51.064;4.580;2023-04-15T07:45:12;16.53;;;10.00;;
75261;SDS011;63859;51.064;4.580;2023-04-15T07:47:37;18.97;;;9.80;;
75261;SDS011;63859;51.064;4.580;2023-04-15T07:50:04;14.33;;;9.00;;
75261;SDS011;63859;51.064;4.580;2023-04-15T07:52:31;19.30;;;9.60;;
75261;SDS011;63859;51.064;4.580;2023-04-15T07:55:03;16.33;;;9.03;;
75261;SDS011;63859;51.064;4.580;2023-04-15T07:57:35;18.17;;;9.40;;
75261;SDS011;63859;51.064;4.580;2023-04-15T08:00:02;17.27;;;8.03;;
75261;SDS011;63859;51.064;4.580;2023-04-15T08:02:31;13.67;;;7.70;;
75261;SDS011;63859;51.064;4.580;2023-04-15T08:04:57;11.53;;;7.33;;
75261;SDS011;63859;51.064;4.580;2023-04-15T08:07:23;15.03;;;7.60;;
75261;SDS011;63859;51.064;4.580;2023-04-15T08:09:49;14.77;;;7.03;;
75261;SDS011;63859;51.064;4.580;2023-04-15T08:12:15;16.77;;;7.70;;
75261;SDS011;63859;51.064;4.580;2023-04-15T08:14:41;11.47;;;7.60;;
75261;SDS011;63859;51.064;4.580;2023-04-15T08:17:08;16.20;;;8.73;;
75261;SDS011;63859;51.064;4.580;2023-04-15T08:19:33;19.17;;;8.77;;
75261;SDS011;63859;51.064;4.580;2023-04-15T08:21:59;16.27;;;8.77;;
75261;SDS011;63859;51.064;4.580;2023-04-15T08:24:25;19.33;;;9.30;;
75261;SDS011;63859;51.064;4.580;2023-04-15T08:26:51;12.93;;;8.83;;
75261;SDS011;63859;51.064;4.580;2023-04-15T08:29:17;21.20;;;9.33;;
75261;SDS011;63859;51.064;4.580;2023-04-15T08:31:42;15.57;;;8.73;;
75261;SDS011;63859;51.064;4.580;2023-04-15T08:34:09;17.63;;;8.37;;
75261;SDS011;63859;51.064;4.580;2023-04-15T08:36:39;17.60;;;7.80;;
75261;SDS011;63859;51.064;4.580;2023-04-15T08:39:05;11.02;;;7.70;;
75261;SDS011;63859;51.064;4.580;2023-04-15T08:41:44;12.02;;;8.13;;
75261;SDS011;63859;51.064;4.580;2023-04-15T08:44:14;11.68;;;8.15;;
75261;SDS011;63859;51.064;4.580;2023-04-15T08:46:40;14.85;;;8.63;;
75261;SDS011;63859;51.064;4.580;2023-04-15T08:49:08;12.57;;;8.07;;
75261;SDS011;63859;51.064;4.580;2023-04-15T08:51:41;18.88;;;7.93;;
75261;SDS011;63859;51.064;4.580;2023-04-15T08:54:07;12.48;;;7.25;;
75261;SDS011;63859;51.064;4.580;2023-04-15T08:56:33;12.48;;;7.18;;
75261;SDS011;63859;51.064;4.580;2023-04-15T08:58:59;9.35;;;6.43;;
75261;SDS011;63859;51.064;4.580;2023-04-15T09:01:26;10.60;;;6.13;;
75261;SDS011;63859;51.064;4.580;2023-04-15T09:03:52;8.77;;;6.43;;
75261;SDS011;63859;51.064;4.580;2023-04-15T09:06:19;10.75;;;6.45;;
75261;SDS011;63859;51.064;4.580;2023-04-15T09:08:45;10.23;;;6.28;;
75261;SDS011;63859;51.064;4.580;2023-04-15T09:11:11;14.50;;;6.90;;
75261;SDS011;63859;51.064;4.580;2023-04-15T09:13:37;14.55;;;8.55;;
75261;SDS011;63859;51.064;4.580;2023-04-15T09:16:04;11.82;;;6.55;;
75261;SDS011;63859;51.064;4.580;2023-04-15T09:18:34;11.52;;;6.38;;
75261;SDS011;63859;51.064;4.580;2023-04-15T09:21:07;8.38;;;6.28;;
75261;SDS011;63859;51.064;4.580;2023-04-15T09:23:35;12.63;;;5.82;;
75261;SDS011;63859;51.064;4.580;2023-04-15T09:26:02;7.78;;;5.95;;
75261;SDS011;63859;51.064;4.580;2023-04-15T09:28:28;11.10;;;6.85;;
75261;SDS011;63859;51.064;4.580;2023-04-15T09:30:58;9.60;;;5.32;;
75261;SDS011;63859;51.064;4.580;2023-04-15T09:33:25;7.75;;;5.55;;
75261;SDS011;63859;51.064;4.580;2023-04-15T09:35:59;9.50;;;5.80;;
75261;SDS011;63859;51.064;4.580;2023-04-15T09:38:29;9.13;;;5.95;;
75261;SDS011;63859;51.064;4.580;2023-04-15T09:40:55;12.32;;;5.32;;
75261;SDS011;63859;51.064;4.580;2023-04-15T09:43:22;10.90;;;5.70;;
75261;SDS011;63859;51.064;4.580;2023-04-15T09:46:00;5.80;;;5.30;;
75261;SDS011;63859;51.064;4.580;2023-04-15T09:48:26;6.18;;;4.97;;
75261;SDS011;63859;51.064;4.580;2023-04-15T09:50:52;7.95;;;4.65;;
75261;SDS011;63859;51.064;4.580;2023-04-15T09:53:22;8.80;;;5.05;;
75261;SDS011;63859;51.064;4.580;2023-04-15T09:58:22;5.97;;;4.57;;
75261;SDS011;63859;51.064;4.580;2023-04-15T10:00:53;7.38;;;3.97;;
75261;SDS011;63859;51.064;4.580;2023-04-15T10:03:22;6.82;;;3.58;;
75261;SDS011;63859;51.064;4.580;2023-04-15T10:05:51;6.85;;;4.00;;
75261;SDS011;63859;51.064;4.580;2023-04-15T10:08:19;5.68;;;4.00;;
75261;SDS011;63859;51.064;4.580;2023-04-15T10:10:47;7.90;;;4.15;;
75261;SDS011;63859;51.064;4.580;2023-04-15T10:13:14;6.90;;;4.93;;
75261;SDS011;63859;51.064;4.580;2023-04-15T10:15:43;6.32;;;4.50;;
75261;SDS011;63859;51.064;4.580;2023-04-15T10:18:11;7.10;;;4.70;;
75261;SDS011;63859;51.064;4.580;2023-04-15T10:20:41;6.70;;;4.22;;
75261;SDS011;63859;51.064;4.580;2023-04-15T10:23:08;7.20;;;4.70;;
75261;SDS011;63859;51.064;4.580;2023-04-15T10:25:35;9.68;;;5.00;;
75261;SDS011;63859;51.064;4.580;2023-04-15T10:28:01;8.55;;;5.00;;
75261;SDS011;63859;51.064;4.580;2023-04-15T10:30:27;7.75;;;4.75;;
75261;SDS011;63859;51.064;4.580;2023-04-15T10:32:53;6.10;;;4.40;;
75261;SDS011;63859;51.064;4.580;2023-04-15T10:35:20;7.30;;;4.40;;
75261;SDS011;63859;51.064;4.580;2023-04-15T10:37:47;4.85;;;3.60;;
75261;SDS011;63859;51.064;4.580;2023-04-15T10:40:31;7.18;;;4.32;;
75261;SDS011;63859;51.064;4.580;2023-04-15T10:42:58;5.97;;;4.22;;
75261;SDS011;63859;51.064;4.580;2023-04-15T10:45:27;4.75;;;4.10;;
75261;SDS011;63859;51.064;4.580;2023-04-15T10:47:57;5.35;;;4.22;;
75261;SDS011;63859;51.064;4.580;2023-04-15T10:50:26;6.60;;;4.30;;
75261;SDS011;63859;51.064;4.580;2023-04-15T10:52:54;5.35;;;3.65;;
75261;SDS011;63859;51.064;4.580;2023-04-15T10:55:21;4.75;;;3.30;;
75261;SDS011;63859;51.064;4.580;2023-04-15T10:57:57;5.03;;;3.92;;
75261;SDS011;63859;51.064;4.580;2023-04-15T11:00:27;5.75;;;4.15;;
75261;SDS011;63859;51.064;4.580;2023-04-15T11:08:06;7.05;;;3.80;;
75261;SDS011;63859;51.064;4.580;2023-04-15T11:13:05;7.18;;;4.60;;
75261;SDS011;63859;51.064;4.580;2023-04-15T11:15:41;5.25;;;4.05;;
75261;SDS011;63859;51.064;4.580;2023-04-15T11:18:21;6.10;;;3.72;;
75261;SDS011;63859;51.064;4.580;2023-04-15T11:20:52;5.65;;;3.25;;
75261;SDS011;63859;51.064;4.580;2023-04-15T11:23:41;4.28;;;3.20;;
75261;SDS011;63859;51.064;4.580;2023-04-15T11:26:16;4.78;;;3.22;;
75261;SDS011;63859;51.064;4.580;2023-04-15T11:28:42;4.18;;;3.03;;
75261;SDS011;63859;51.064;4.580;2023-04-15T11:31:16;4.63;;;3.40;;
75261;SDS011;63859;51.064;4.580;2023-04-15T11:33:55;4.88;;;3.50;;
75261;SDS011;63859;51.064;4.580;2023-04-15T11:36:23;6.00;;;2.72;;
75261;SDS011;63859;51.064;4.580;2023-04-15T11:38:51;6.25;;;2.50;;
75261;SDS011;63859;51.064;4.580;2023-04-15T11:41:20;4.32;;;2.15;;
75261;SDS011;63859;51.064;4.580;2023-04-15T11:43:46;5.07;;;3.40;;
75261;SDS011;63859;51.064;4.580;2023-04-15T11:46:12;5.18;;;3.45;;
75261;SDS011;63859;51.064;4.580;2023-04-15T11:48:41;6.18;;;3.58;;
75261;SDS011;63859;51.064;4.580;2023-04-15T11:51:08;7.32;;;3.30;;
75261;SDS011;63859;51.064;4.580;2023-04-15T11:56:05;5.43;;;2.65;;
75261;SDS011;63859;51.064;4.580;2023-04-15T11:58:33;5.93;;;2.60;;
75261;SDS011;63859;51.064;4.580;2023-04-15T12:01:03;4.18;;;2.95;;
75261;SDS011;63859;51.064;4.580;2023-04-15T12:06:20;5.97;;;2.78;;
75261;SDS011;63859;51.064;4.580;2023-04-15T12:13:52;3.20;;;2.25;;
75261;SDS011;63859;51.064;4.580;2023-04-15T12:16:39;2.20;;;1.83;;
75261;SDS011;63859;51.064;4.580;2023-04-15T12:19:10;4.47;;;2.08;;
75261;SDS011;63859;51.064;4.580;2023-04-15T12:21:38;3.92;;;2.40;;
75261;SDS011;63859;51.064;4.580;2023-04-15T12:24:07;3.63;;;1.65;;
75261;SDS011;63859;51.064;4.580;2023-04-15T12:26:35;4.63;;;2.30;;
75261;SDS011;63859;51.064;4.580;2023-04-15T12:29:12;3.22;;;2.22;;
75261;SDS011;63859;51.064;4.580;2023-04-15T12:31:53;4.80;;;3.33;;
75261;SDS011;63859;51.064;4.580;2023-04-15T12:34:26;4.70;;;2.75;;
75261;SDS011;63859;51.064;4.580;2023-04-15T12:36:52;4.05;;;2.45;;
75261;SDS011;63859;51.064;4.580;2023-04-15T12:39:22;5.00;;;3.10;;
75261;SDS011;63859;51.064;4.580;2023-04-15T12:41:49;5.90;;;3.00;;
75261;SDS011;63859;51.064;4.580;2023-04-15T12:44:15;6.55;;;3.10;;
75261;SDS011;63859;51.064;4.580;2023-04-15T12:46:41;5.70;;;2.70;;
75261;SDS011;63859;51.064;4.580;2023-04-15T12:49:07;7.88;;;2.92;;
75261;SDS011;63859;51.064;4.580;2023-04-15T12:51:33;4.85;;;2.88;;
75261;SDS011;63859;51.064;4.580;2023-04-15T12:53:58;4.07;;;2.60;;
75261;SDS011;63859;51.064;4.580;2023-04-15T12:56:24;5.13;;;2.38;;
75261;SDS011;63859;51.064;4.580;2023-04-15T12:58:50;4.75;;;2.40;;
75261;SDS011;63859;51.064;4.580;2023-04-15T13:01:16;3.53;;;2.47;;
75261;SDS011;63859;51.064;4.580;2023-04-15T13:03:42;6.13;;;2.88;;
75261;SDS011;63859;51.064;4.580;2023-04-15T13:06:08;4.90;;;2.78;;
75261;SDS011;63859;51.064;4.580;2023-04-15T13:08:34;4.75;;;2.58;;
75261;SDS011;63859;51.064;4.580;2023-04-15T13:10:59;4.00;;;2.40;;
75261;SDS011;63859;51.064;4.580;2023-04-15T13:13:25;3.88;;;2.47;;
75261;SDS011;63859;51.064;4.580;2023-04-15T13:15:51;4.20;;;3.00;;
75261;SDS011;63859;51.064;4.580;2023-04-15T13:18:17;5.28;;;2.88;;
75261;SDS011;63859;51.064;4.580;2023-04-15T13:20:43;6.57;;;3.03;;
75261;SDS011;63859;51.064;4.580;2023-04-15T13:23:08;5.25;;;2.40;;
75261;SDS011;63859;51.064;4.580;2023-04-15T13:25:34;5.43;;;2.60;;
75261;SDS011;63859;51.064;4.580;2023-04-15T13:28:00;3.50;;;2.38;;
75261;SDS011;63859;51.064;4.580;2023-04-15T13:30:26;3.47;;;2.20;;
75261;SDS011;63859;51.064;4.580;2023-04-15T13:32:52;4.35;;;2.47;;
75261;SDS011;63859;51.064;4.580;2023-04-15T13:35:18;5.72;;;2.33;;
75261;SDS011;63859;51.064;4.580;2023-04-15T13:37:45;3.75;;;2.13;;
75261;SDS011;63859;51.064;4.580;2023-04-15T13:40:11;3.55;;;1.65;;
75261;SDS011;63859;51.064;4.580;2023-04-15T13:42:37;2.35;;;1.60;;
75261;SDS011;63859;51.064;4.580;2023-04-15T13:45:02;2.50;;;1.50;;
75261;SDS011;63859;51.064;4.580;2023-04-15T13:47:28;4.57;;;1.48;;
75261;SDS011;63859;51.064;4.580;2023-04-15T13:49:54;3.92;;;1.30;;
75261;SDS011;63859;51.064;4.580;2023-04-15T13:52:21;2.13;;;1.25;;
75261;SDS011;63859;51.064;4.580;2023-04-15T13:54:47;2.65;;;1.40;;
75261;SDS011;63859;51.064;4.580;2023-04-15T13:57:12;4.38;;;1.58;;
75261;SDS011;63859;51.064;4.580;2023-04-15T13:59:38;6.97;;;1.73;;
75261;SDS011;63859;51.064;4.580;2023-04-15T14:02:04;2.75;;;1.45;;
75261;SDS011;63859;51.064;4.580;2023-04-15T14:04:30;3.95;;;1.70;;
75261;SDS011;63859;51.064;4.580;2023-04-15T14:06:56;2.63;;;1.50;;
75261;SDS011;63859;51.064;4.580;2023-04-15T14:09:22;2.50;;;1.60;;
75261;SDS011;63859;51.064;4.580;2023-04-15T14:11:48;4.30;;;1.60;;
75261;SDS011;63859;51.064;4.580;2023-04-15T14:14:14;3.28;;;1.90;;
75261;SDS011;63859;51.064;4.580;2023-04-15T14:16:40;3.45;;;1.80;;
75261;SDS011;63859;51.064;4.580;2023-04-15T14:19:06;3.08;;;1.90;;
75261;SDS011;63859;51.064;4.580;2023-04-15T14:21:31;7.03;;;2.10;;
75261;SDS011;63859;51.064;4.580;2023-04-15T14:23:57;5.32;;;2.20;;
75261;SDS011;63859;51.064;4.580;2023-04-15T14:26:23;4.45;;;2.22;;
75261;SDS011;63859;51.064;4.580;2023-04-15T14:28:49;5.88;;;2.50;;
75261;SDS011;63859;51.064;4.580;2023-04-15T14:31:15;3.65;;;2.40;;
75261;SDS011;63859;51.064;4.580;2023-04-15T14:33:40;2.65;;;1.75;;
75261;SDS011;63859;51.064;4.580;2023-04-15T14:36:07;4.43;;;2.05;;
75261;SDS011;63859;51.064;4.580;2023-04-15T14:38:34;5.28;;;2.40;;
75261;SDS011;63859;51.064;4.580;2023-04-15T14:41:04;4.18;;;2.03;;
75261;SDS011;63859;51.064;4.580;2023-04-15T14:43:30;4.70;;;2.40;;
75261;SDS011;63859;51.064;4.580;2023-04-15T14:45:56;4.38;;;2.40;;
75261;SDS011;63859;51.064;4.580;2023-04-15T14:48:21;2.63;;;2.05;;
75261;SDS011;63859;51.064;4.580;2023-04-15T14:50:47;3.78;;;2.10;;
75261;SDS011;63859;51.064;4.580;2023-04-15T14:53:13;6.85;;;2.15;;
75261;SDS011;63859;51.064;4.580;2023-04-15T14:55:39;16.05;;;2.80;;
75261;SDS011;63859;51.064;4.580;2023-04-15T14:58:05;3.15;;;2.30;;